ANTO2: Kiamichi River, Antlers, OKla

                                SHEF ID:       ANTO2     Kiamichi River near Antlers, OK
STATION TYPE:
Regulating: Stage = 22.00, Flow = 20000

PRECIP PRECIP(A) STAGE RIV-FLOW BAT-LOAD
in in ft cfs volt
Ccp-Rev Ccp-Rev Ccp-Rev Ccp-Rev Ccp-Rev
(America/Chicago)
02/21 00:00 0.00 ---- 4.16 577 12.58
02/21 01:00 0.00 ---- 4.15 573 12.55
02/21 02:00 0.00 ---- 4.13 566 12.53
02/21 03:00 0.00 ---- 4.12 562 12.50
02/21 04:00 0.00 ---- 4.10 555 12.48
02/21 05:00 0.00 ---- 4.09 551 12.45
02/21 06:00 0.00 ---- 4.07 544 12.44
02/21 07:00 0.00 ---- 4.06 541 12.42
02/21 08:00 0.00 ---- 4.04 534 12.44
02/21 09:00 0.00 ---- 4.03 530 12.60
02/21 10:00 0.00 ---- 4.02 527 13.42
02/21 11:00 0.00 ---- 3.92 493 13.45
02/21 12:00 0.00 ---- 3.91 489 13.23
02/21 13:00 0.00 ---- 3.96 506 13.09
02/21 14:00 0.00 ---- 3.92 493 13.03
02/21 15:00 0.00 ---- 3.89 483 13.03
02/21 16:00 0.00 ---- 3.88 479 13.05
02/21 17:00 0.00 ---- 3.91 489 13.03
02/21 18:00 0.00 ---- 3.89 483 13.01
02/21 19:00 0.00 ---- 3.88 479 12.80
02/21 20:00 0.00 ---- 3.87 476 12.68
02/21 21:00 0.00 ---- 3.85 469 12.63
02/21 22:00 0.00 ---- 3.84 469 12.57
02/21 23:00 ---- ---- 3.84 ---- 12.54
Data processed at Sun 22Feb2026 05:32 GMT

NOTICE: If you are parsing this page

Please convert to using our Data API. Starting early 2026 we will be migrating to: https://water.usace.army.mil with modern pages rendered in JavaScript. When this migration completes you will no longer be able to scrape this page! CWMSDataAPI (CDA)

Timeseries IDs (TSIDs)

TSIDs used from left to right in the data table
ANTL.Precip-Inc.Total.1Hour.1Hour.Ccp-Rev
ANTL.Precip-Inc Alt.Total.1Hour.1Hour.Ccp-Rev
ANTL.Stage.Inst.1Hour.0.Ccp-Rev
ANTL.Flow.Inst.1Hour.0.Ccp-Rev
ANTL.Volt-Battery Load.Inst.1Hour.0.Ccp-Rev

                            

All information presented herein is the property of the government of the United States of America and may be revised or deleted at any time without prior notice. Dissemination of this information without the expressed written consent of the Public Affairs Office, Tulsa District U.S. Army Corps of Engineers is strictly prohibited. These data are gathered electronically and, as presented, have NOT undergone any form of quality control. These data are NOT guaranteed to be valid or correct.